createdAt,value
2023-02-14T00:00:57.866Z,98.90
2023-02-14T00:03:27.184Z,99.00
2023-02-14T00:05:55.308Z,98.90
2023-02-14T00:08:23.559Z,98.90
2023-02-14T00:10:51.691Z,98.90
2023-02-14T00:13:19.760Z,98.80
2023-02-14T00:15:46.934Z,98.80
2023-02-14T00:18:18.928Z,98.90
2023-02-14T00:20:47.864Z,99.10
2023-02-14T00:23:15.993Z,98.90
2023-02-14T00:25:44.089Z,98.90
2023-02-14T00:28:12.330Z,98.90
2023-02-14T00:30:40.662Z,99.00
2023-02-14T00:33:08.826Z,99.10
2023-02-14T00:35:40.251Z,99.00
2023-02-14T00:38:08.364Z,99.20
2023-02-14T00:40:36.650Z,99.00
2023-02-14T00:43:04.759Z,99.10
2023-02-14T00:45:32.889Z,99.10
2023-02-14T00:48:01.383Z,99.10
2023-02-14T00:50:29.646Z,99.20
2023-02-14T00:52:59.099Z,99.30
2023-02-14T00:55:27.180Z,99.90
2023-02-14T00:57:55.572Z,99.50
2023-02-14T01:00:24.328Z,99.40
2023-02-14T01:02:53.421Z,99.20
2023-02-14T01:05:21.838Z,99.40
2023-02-14T01:07:50.330Z,99.40
2023-02-14T01:10:20.144Z,99.40
2023-02-14T01:12:48.401Z,99.50
2023-02-14T01:15:16.762Z,99.40
2023-02-14T01:17:45.665Z,99.40
2023-02-14T01:20:15.658Z,99.40
2023-02-14T01:22:44.094Z,99.40
2023-02-14T01:25:12.335Z,99.60
2023-02-14T01:27:41.789Z,99.60
2023-02-14T01:30:11.637Z,99.70
2023-02-14T01:32:39.964Z,99.60
2023-02-14T01:35:08.331Z,99.50
2023-02-14T01:37:36.502Z,99.50
2023-02-14T01:40:05.538Z,99.50
2023-02-14T01:42:34.396Z,99.50
2023-02-14T01:45:05.709Z,99.60
2023-02-14T01:47:35.920Z,99.90
2023-02-14T01:50:07.794Z,99.80
2023-02-14T01:52:38.625Z,99.90
2023-02-14T01:55:12.182Z,99.90
2023-02-14T01:57:44.044Z,99.90
2023-02-14T02:00:33.120Z,99.90
2023-02-14T02:03:01.536Z,99.90
2023-02-14T02:05:29.709Z,99.90
2023-02-14T02:07:59.527Z,99.90
2023-02-14T02:10:29.280Z,99.90
2023-02-14T02:12:57.582Z,99.90
2023-02-14T02:15:28.150Z,99.90
2023-02-14T02:18:02.451Z,99.90
2023-02-14T02:21:03.293Z,99.90
2023-02-14T02:24:01.990Z,99.90
2023-02-14T02:27:02.521Z,99.90
2023-02-14T02:30:27.281Z,99.90
2023-02-14T02:33:26.547Z,99.90
2023-02-14T02:36:54.010Z,99.90
2023-02-14T02:39:45.769Z,99.90
2023-02-14T02:42:24.983Z,99.90
2023-02-14T02:44:58.627Z,99.90
2023-02-14T02:47:29.609Z,99.90
2023-02-14T02:50:20.139Z,99.90
2023-02-14T02:53:06.980Z,99.90
2023-02-14T02:56:01.100Z,99.90
2023-02-14T02:58:35.458Z,99.90
2023-02-14T03:01:07.885Z,99.90
2023-02-14T03:03:59.196Z,99.90
2023-02-14T03:06:27.732Z,99.90
2023-02-14T03:08:57.254Z,99.90
2023-02-14T03:11:25.520Z,99.90
2023-02-14T03:14:09.705Z,99.90
2023-02-14T03:16:44.348Z,99.90
2023-02-14T03:20:00.627Z,99.90
2023-02-14T03:22:41.434Z,99.90
2023-02-14T03:25:24.886Z,99.90
2023-02-14T03:27:59.255Z,99.90
2023-02-14T03:30:36.659Z,99.90
2023-02-14T03:33:07.159Z,99.90
2023-02-14T03:35:38.214Z,99.90
2023-02-14T03:38:09.359Z,99.90
2023-02-14T03:40:41.944Z,99.90
2023-02-14T03:43:15.209Z,99.90
2023-02-14T03:45:47.498Z,99.90
2023-02-14T03:48:16.045Z,99.90
2023-02-14T03:50:45.442Z,99.90
2023-02-14T03:53:14.218Z,99.90
2023-02-14T03:55:47.856Z,99.90
2023-02-14T03:58:17.902Z,99.90
2023-02-14T04:00:46.058Z,99.90
2023-02-14T04:03:14.845Z,99.90
2023-02-14T04:05:46.633Z,99.90
2023-02-14T04:08:24.085Z,99.90
2023-02-14T04:10:53.638Z,99.90
2023-02-14T04:13:21.922Z,99.90
2023-02-14T04:15:50.094Z,99.90
2023-02-14T04:18:35.740Z,99.90
2023-02-14T04:21:03.961Z,99.90
2023-02-14T04:23:32.168Z,99.90
2023-02-14T04:26:03.648Z,99.90
2023-02-14T04:28:32.016Z,99.90
2023-02-14T04:31:02.660Z,99.90
2023-02-14T04:33:31.128Z,99.90
2023-02-14T04:35:59.886Z,99.90
2023-02-14T04:38:28.076Z,99.90
2023-02-14T04:40:57.351Z,99.90
2023-02-14T04:43:27.122Z,99.90
2023-02-14T04:45:55.274Z,99.90
2023-02-14T04:48:23.406Z,99.90
2023-02-14T04:50:54.529Z,99.90
2023-02-14T04:53:22.871Z,99.90
2023-02-14T04:55:51.229Z,99.90
2023-02-14T04:58:19.395Z,99.90
2023-02-14T05:00:49.068Z,99.90
2023-02-14T05:03:17.259Z,99.90
2023-02-14T05:05:45.436Z,99.90
2023-02-14T05:08:14.399Z,99.90
2023-02-14T05:10:42.712Z,99.90
2023-02-14T05:13:10.925Z,99.90
2023-02-14T05:15:39.158Z,99.90
2023-02-14T05:18:08.790Z,99.90
2023-02-14T05:20:37.061Z,99.90
2023-02-14T05:23:05.391Z,99.90
2023-02-14T05:25:33.667Z,99.90
2023-02-14T05:28:01.864Z,99.90
2023-02-14T05:30:30.425Z,99.90
2023-02-14T05:32:58.771Z,99.90
2023-02-14T05:35:28.422Z,99.90
2023-02-14T05:37:56.676Z,99.90
2023-02-14T05:42:53.300Z,99.90
2023-02-14T05:45:21.486Z,99.90
2023-02-14T05:47:49.920Z,99.90
2023-02-14T05:50:18.337Z,99.90
2023-02-14T05:52:47.867Z,99.90
2023-02-14T05:55:16.078Z,99.90
2023-02-14T05:57:44.265Z,99.90
2023-02-14T06:00:14.777Z,99.90
2023-02-14T06:02:42.884Z,99.90
2023-02-14T06:05:11.059Z,99.90
2023-02-14T06:07:39.297Z,99.90
2023-02-14T06:10:10.984Z,99.90
2023-02-14T06:12:39.271Z,99.90
2023-02-14T06:15:08.754Z,99.90
2023-02-14T06:17:37.128Z,99.90
2023-02-14T06:20:06.873Z,99.90
2023-02-14T06:22:35.068Z,99.90
2023-02-14T06:25:03.580Z,99.90
2023-02-14T06:27:33.304Z,99.90
2023-02-14T06:30:01.930Z,99.90
2023-02-14T06:32:30.142Z,99.90
2023-02-14T06:34:58.335Z,99.90
2023-02-14T06:37:26.465Z,99.90
2023-02-14T06:39:54.703Z,99.90
2023-02-14T06:42:22.911Z,99.90
2023-02-14T06:44:52.471Z,99.90
2023-02-14T06:47:20.724Z,99.90
2023-02-14T06:49:49.131Z,99.90
2023-02-14T06:52:17.344Z,99.90
2023-02-14T06:54:45.566Z,99.90
2023-02-14T06:57:13.873Z,99.90
2023-02-14T06:59:42.075Z,99.90
2023-02-14T07:02:12.451Z,99.90
2023-02-14T07:04:40.659Z,99.90
2023-02-14T07:07:08.788Z,99.90
2023-02-14T07:09:37.394Z,99.90
2023-02-14T07:12:05.900Z,99.90
2023-02-14T07:14:34.393Z,99.90
2023-02-14T07:17:02.544Z,99.90
2023-02-14T07:19:32.089Z,99.90
2023-02-14T07:22:00.794Z,99.90
2023-02-14T07:24:29.239Z,99.90
2023-02-14T07:26:57.489Z,99.90
2023-02-14T07:29:25.890Z,99.90
2023-02-14T07:31:54.432Z,99.90
2023-02-14T07:34:22.821Z,99.90
2023-02-14T07:36:52.431Z,99.90
2023-02-14T07:39:20.688Z,99.90
2023-02-14T07:41:48.997Z,99.90
2023-02-14T07:44:20.744Z,99.90
2023-02-14T07:46:48.917Z,99.90
2023-02-14T07:49:17.105Z,99.90
2023-02-14T07:51:45.435Z,99.90
2023-02-14T07:54:14.947Z,99.90
2023-02-14T07:56:43.179Z,99.90
2023-02-14T07:59:11.420Z,99.90
2023-02-14T08:01:39.779Z,99.90
2023-02-14T08:04:07.988Z,99.90
2023-02-14T08:06:36.156Z,99.90
2023-02-14T08:09:04.554Z,99.90
2023-02-14T08:11:51.952Z,99.90
2023-02-14T08:14:20.389Z,99.90
2023-02-14T08:16:49.049Z,99.90
2023-02-14T08:19:17.220Z,99.90
2023-02-14T08:21:45.346Z,99.90
2023-02-14T08:24:13.539Z,99.90
2023-02-14T08:26:43.043Z,99.90
2023-02-14T08:29:11.232Z,99.90
2023-02-14T08:31:39.595Z,99.90
2023-02-14T08:34:07.760Z,99.90
2023-02-14T08:36:35.968Z,99.90
2023-02-14T08:39:05.584Z,99.90
2023-02-14T08:41:33.737Z,99.90
2023-02-14T08:44:03.389Z,99.90
2023-02-14T08:46:31.683Z,99.90
2023-02-14T08:49:00.012Z,99.90
2023-02-14T08:51:28.265Z,99.90
2023-02-14T08:53:56.585Z,99.90
2023-02-14T08:56:25.233Z,99.90
2023-02-14T08:58:54.479Z,99.90
2023-02-14T09:01:24.171Z,99.90
2023-02-14T09:03:52.557Z,99.90
2023-02-14T09:06:20.813Z,99.90
2023-02-14T09:08:49.082Z,99.90
2023-02-14T09:11:19.603Z,99.90
2023-02-14T09:13:48.249Z,99.90
2023-02-14T09:16:17.665Z,99.90
2023-02-14T09:18:47.858Z,99.90
2023-02-14T09:21:18.242Z,99.90
2023-02-14T09:23:46.534Z,99.90
2023-02-14T09:26:16.135Z,99.90
2023-02-14T09:28:44.467Z,99.90
2023-02-14T09:31:14.463Z,99.90
2023-02-14T09:33:43.090Z,99.90
2023-02-14T09:36:21.889Z,99.90
2023-02-14T09:38:50.194Z,99.90
2023-02-14T09:41:47.938Z,99.90
2023-02-14T09:44:23.754Z,99.90
2023-02-14T09:46:54.483Z,99.90
2023-02-14T09:49:30.321Z,99.90
2023-02-14T09:52:00.053Z,99.90
2023-02-14T09:54:29.704Z,99.90
2023-02-14T09:57:00.784Z,99.90
2023-02-14T09:59:34.778Z,99.90
2023-02-14T10:02:17.000Z,99.90
2023-02-14T10:04:49.898Z,99.90
2023-02-14T10:07:23.165Z,99.90
2023-02-14T10:09:57.156Z,99.90
2023-02-14T10:12:28.430Z,99.90
2023-02-14T10:14:57.941Z,99.90
2023-02-14T10:17:32.502Z,99.90
2023-02-14T10:20:02.962Z,99.90
2023-02-14T10:22:39.723Z,99.90
2023-02-14T10:25:14.205Z,99.90
2023-02-14T10:27:44.701Z,99.90
2023-02-14T10:30:15.531Z,99.90
2023-02-14T10:32:47.043Z,99.90
2023-02-14T10:35:25.847Z,99.90
2023-02-14T10:38:03.786Z,99.90
2023-02-14T10:41:20.892Z,99.90
2023-02-14T10:43:54.832Z,99.90
2023-02-14T10:46:31.826Z,99.90
2023-02-14T10:49:03.684Z,99.90
2023-02-14T10:51:35.889Z,99.90
2023-02-14T10:54:17.940Z,99.90
2023-02-14T10:56:48.533Z,99.90
2023-02-14T10:59:23.313Z,99.90
2023-02-14T11:01:52.364Z,99.90
2023-02-14T11:04:21.006Z,99.90
2023-02-14T11:06:50.237Z,99.90
2023-02-14T11:09:19.998Z,99.90
2023-02-14T11:11:51.052Z,99.90
2023-02-14T11:14:33.488Z,99.90
2023-02-14T11:17:28.130Z,99.90
2023-02-14T11:23:50.604Z,99.90
2023-02-14T11:26:39.982Z,99.90
2023-02-14T11:29:13.866Z,99.90
2023-02-14T11:31:43.130Z,99.90
2023-02-14T11:34:31.366Z,99.90
2023-02-14T11:37:00.678Z,99.90
2023-02-14T11:39:32.244Z,99.90
2023-02-14T11:42:05.428Z,99.90
2023-02-14T11:44:37.533Z,99.90
2023-02-14T11:47:24.074Z,99.90
2023-02-14T11:49:57.573Z,99.90
2023-02-14T11:52:30.630Z,99.90
2023-02-14T11:55:00.613Z,99.90
2023-02-14T11:57:35.232Z,99.90
2023-02-14T12:03:17.968Z,99.90
2023-02-14T12:05:49.294Z,99.90
2023-02-14T12:08:25.585Z,99.90
2023-02-14T12:11:04.040Z,99.90
2023-02-14T12:13:34.953Z,99.90
2023-02-14T12:16:04.914Z,99.90
2023-02-14T12:18:50.935Z,99.90
2023-02-14T12:21:50.176Z,99.90
2023-02-14T12:24:31.531Z,99.90
2023-02-14T12:27:14.566Z,99.90
2023-02-14T12:29:47.786Z,99.90
2023-02-14T12:32:24.482Z,99.90
2023-02-14T12:34:55.226Z,99.90
2023-02-14T12:37:42.588Z,99.90
2023-02-14T12:40:24.335Z,99.90
2023-02-14T12:43:14.809Z,99.90
2023-02-14T12:46:19.289Z,99.90
2023-02-14T12:49:13.314Z,99.90
2023-02-14T12:51:45.264Z,99.90
2023-02-14T12:54:47.890Z,99.90
2023-02-14T12:57:27.369Z,99.90
2023-02-14T13:00:02.805Z,99.90
2023-02-14T13:03:02.391Z,99.90
2023-02-14T13:05:44.413Z,99.90
2023-02-14T13:08:35.699Z,99.90
2023-02-14T13:11:17.317Z,99.90
2023-02-14T13:13:56.142Z,99.90
2023-02-14T13:16:30.405Z,99.90
2023-02-14T13:19:04.626Z,99.90
2023-02-14T13:21:42.854Z,99.90
2023-02-14T13:24:56.293Z,99.90
2023-02-14T13:27:59.023Z,99.90
2023-02-14T13:30:32.153Z,99.90
2023-02-14T13:33:04.646Z,99.90
2023-02-14T13:35:34.220Z,99.90
2023-02-14T13:38:04.968Z,99.90
2023-02-14T13:40:33.259Z,99.90
2023-02-14T13:43:01.768Z,99.90
2023-02-14T13:45:55.938Z,99.90
2023-02-14T13:48:25.741Z,99.90
2023-02-14T13:50:57.007Z,99.90
2023-02-14T13:53:34.833Z,99.90
2023-02-14T13:56:04.372Z,99.90
2023-02-14T13:58:32.636Z,99.90
2023-02-14T14:01:02.069Z,99.90
2023-02-14T14:03:57.125Z,99.90
2023-02-14T14:06:27.064Z,99.90
2023-02-14T14:08:56.649Z,99.90
2023-02-14T14:11:59.526Z,99.90
2023-02-14T14:14:36.442Z,99.90
2023-02-14T14:17:27.898Z,99.90
2023-02-14T14:19:57.948Z,99.90
2023-02-14T14:22:27.675Z,99.90
2023-02-14T14:25:00.699Z,99.90
2023-02-14T14:27:33.235Z,99.90
2023-02-14T14:30:02.780Z,99.90
2023-02-14T14:32:33.012Z,99.90
2023-02-14T14:35:02.708Z,99.90
2023-02-14T14:37:33.665Z,99.90
2023-02-14T14:40:05.420Z,99.90
2023-02-14T14:42:37.177Z,99.90
2023-02-14T14:45:07.877Z,99.90
2023-02-14T14:47:41.645Z,99.90
2023-02-14T14:50:16.232Z,99.90
2023-02-14T14:52:48.075Z,99.90
2023-02-14T14:55:21.163Z,99.90
2023-02-14T14:57:51.393Z,99.90
2023-02-14T15:00:27.242Z,99.90
2023-02-14T15:03:05.008Z,99.90
2023-02-14T15:05:36.290Z,99.90
2023-02-14T15:08:22.102Z,99.90
2023-02-14T15:10:54.368Z,99.90
2023-02-14T15:13:53.369Z,99.90
2023-02-14T15:16:25.021Z,99.90
2023-02-14T15:18:54.494Z,99.90
2023-02-14T15:21:22.748Z,99.90
2023-02-14T15:23:52.838Z,99.90
2023-02-14T15:26:26.520Z,99.90
2023-02-14T15:29:00.040Z,99.90
2023-02-14T15:31:32.995Z,99.90
2023-02-14T15:34:02.701Z,99.90
2023-02-14T15:36:31.000Z,99.90
2023-02-14T15:39:01.102Z,99.90
2023-02-14T15:41:29.253Z,99.90
2023-02-14T15:43:57.964Z,99.90
2023-02-14T15:46:34.530Z,99.90
2023-02-14T15:49:07.343Z,99.90
2023-02-14T15:51:36.425Z,99.90
2023-02-14T15:54:08.224Z,99.90
2023-02-14T15:56:37.993Z,99.90
2023-02-14T15:59:08.889Z,99.90
2023-02-14T16:01:37.207Z,99.90
2023-02-14T16:04:06.916Z,99.90
2023-02-14T16:06:38.021Z,99.90
2023-02-14T16:09:22.646Z,99.90
2023-02-14T16:11:50.814Z,99.90
2023-02-14T16:14:35.076Z,99.90
2023-02-14T16:17:04.510Z,99.90
2023-02-14T16:19:34.640Z,99.90
2023-02-14T16:22:02.818Z,99.90
2023-02-14T16:24:32.599Z,99.90
2023-02-14T16:27:06.758Z,99.90
2023-02-14T16:29:35.988Z,99.90
2023-02-14T16:32:16.103Z,99.90
2023-02-14T16:34:47.055Z,99.90
2023-02-14T16:37:21.292Z,99.90
2023-02-14T16:39:51.013Z,99.90
2023-02-14T16:42:19.293Z,99.90
2023-02-14T16:44:47.957Z,99.90
2023-02-14T16:47:17.200Z,99.90
2023-02-14T16:49:45.499Z,99.90
2023-02-14T16:52:14.574Z,99.90
2023-02-14T16:54:42.784Z,99.90
2023-02-14T16:57:17.887Z,99.90
2023-02-14T16:59:46.161Z,99.90
2023-02-14T17:02:15.993Z,99.90
2023-02-14T17:04:44.087Z,99.90
2023-02-14T17:07:12.305Z,99.90
2023-02-14T17:09:42.744Z,99.90
2023-02-14T17:12:16.455Z,99.90
2023-02-14T17:14:45.820Z,99.90
2023-02-14T17:17:13.995Z,99.90
2023-02-14T17:19:42.167Z,99.90
2023-02-14T17:22:10.303Z,99.90
2023-02-14T17:24:38.549Z,99.90
2023-02-14T17:27:07.436Z,99.90
2023-02-14T17:29:37.116Z,99.90
2023-02-14T17:32:05.820Z,99.90
2023-02-14T17:34:34.065Z,99.90
2023-02-14T17:37:02.843Z,99.90
2023-02-14T17:39:31.171Z,99.90
2023-02-14T17:41:59.644Z,99.90
2023-02-14T17:44:29.590Z,99.90
2023-02-14T17:46:59.379Z,99.90
2023-02-14T17:49:27.913Z,99.90
2023-02-14T17:51:56.750Z,99.90
2023-02-14T17:54:25.423Z,99.90
2023-02-14T17:56:53.682Z,99.90
2023-02-14T17:59:21.903Z,99.90
2023-02-14T18:01:50.171Z,99.90
2023-02-14T18:04:19.655Z,99.90
2023-02-14T18:06:47.976Z,99.90
2023-02-14T18:09:16.323Z,99.90
2023-02-14T18:11:44.534Z,99.90
2023-02-14T18:14:12.715Z,99.90
2023-02-14T18:16:41.313Z,99.90
2023-02-14T18:19:10.048Z,99.90
2023-02-14T18:21:40.087Z,99.90
2023-02-14T18:24:09.202Z,99.90
2023-02-14T18:26:37.589Z,99.90
2023-02-14T18:29:06.666Z,99.90
2023-02-14T18:31:35.256Z,99.90
2023-02-14T18:34:03.621Z,99.90
2023-02-14T18:36:32.154Z,99.90
2023-02-14T18:39:01.673Z,99.90
2023-02-14T18:41:30.052Z,99.90
2023-02-14T18:43:58.326Z,99.90
2023-02-14T18:46:27.856Z,99.90
2023-02-14T18:48:56.893Z,99.90
2023-02-14T18:51:26.700Z,99.90
2023-02-14T18:53:55.068Z,99.90
2023-02-14T18:56:26.521Z,99.90
2023-02-14T18:58:57.465Z,99.90
2023-02-14T19:01:28.820Z,99.90
2023-02-14T19:03:57.353Z,99.90
2023-02-14T19:06:25.568Z,99.90
2023-02-14T19:08:53.790Z,99.90
2023-02-14T19:11:24.831Z,99.90
2023-02-14T19:13:54.467Z,99.90
2023-02-14T19:16:24.985Z,99.90
2023-02-14T19:18:54.021Z,99.90
2023-02-14T19:21:23.325Z,99.90
2023-02-14T19:23:51.891Z,99.90
2023-02-14T19:26:21.547Z,99.90
2023-02-14T19:28:54.720Z,99.90
2023-02-14T19:31:23.013Z,99.90
2023-02-14T19:33:51.503Z,99.90
2023-02-14T19:36:21.218Z,99.90
2023-02-14T19:38:50.453Z,99.90
2023-02-14T19:41:20.443Z,99.90
2023-02-14T19:43:51.361Z,99.90
2023-02-14T19:46:20.911Z,99.90
2023-02-14T19:48:49.638Z,99.90
2023-02-14T19:51:18.613Z,99.90
2023-02-14T19:53:46.788Z,99.90
2023-02-14T19:56:19.550Z,99.90
2023-02-14T19:58:47.866Z,99.90
2023-02-14T20:01:24.744Z,99.90
2023-02-14T20:03:53.500Z,99.90
2023-02-14T20:06:21.717Z,99.90
2023-02-14T20:08:49.872Z,99.90
2023-02-14T20:11:28.224Z,99.90
2023-02-14T20:13:56.414Z,99.90
2023-02-14T20:16:26.389Z,99.90
2023-02-14T20:18:54.696Z,99.90
2023-02-14T20:21:25.516Z,99.90
2023-02-14T20:23:53.680Z,99.90
2023-02-14T20:26:21.864Z,99.90
2023-02-14T20:28:50.872Z,99.90
2023-02-14T20:31:20.069Z,99.90
2023-02-14T20:33:51.429Z,99.90
2023-02-14T20:36:19.669Z,99.90
2023-02-14T20:38:47.789Z,99.90
2023-02-14T20:41:16.986Z,99.90
2023-02-14T20:43:45.121Z,99.90
2023-02-14T20:46:13.377Z,99.90
2023-02-14T20:48:41.495Z,99.90
2023-02-14T20:51:15.881Z,99.90
2023-02-14T20:53:44.679Z,99.90
2023-02-14T20:56:13.101Z,99.90
2023-02-14T20:58:41.618Z,99.90
2023-02-14T21:01:10.836Z,99.90
2023-02-14T21:03:40.837Z,99.90
2023-02-14T21:06:11.538Z,99.90
2023-02-14T21:08:42.146Z,99.90
2023-02-14T21:11:11.178Z,99.90
2023-02-14T21:13:39.625Z,99.90
2023-02-14T21:16:09.584Z,99.90
2023-02-14T21:18:38.583Z,99.90
2023-02-14T21:21:07.041Z,99.90
2023-02-14T21:23:35.446Z,99.90
2023-02-14T21:26:05.058Z,99.90
2023-02-14T21:28:33.187Z,99.90
2023-02-14T21:31:05.204Z,99.90
2023-02-14T21:33:33.540Z,99.90
2023-02-14T21:36:07.534Z,99.90
2023-02-14T21:38:35.853Z,99.90
2023-02-14T21:41:06.213Z,99.90
2023-02-14T21:43:35.233Z,99.90
2023-02-14T21:46:05.061Z,99.90
2023-02-14T21:48:50.652Z,99.90
2023-02-14T21:51:18.908Z,99.90
2023-02-14T21:53:47.147Z,99.90
2023-02-14T21:56:19.746Z,99.90
2023-02-14T21:58:48.421Z,99.90
2023-02-14T22:01:17.389Z,99.90
2023-02-14T22:03:45.516Z,99.90
2023-02-14T22:06:14.097Z,99.90
2023-02-14T22:08:42.445Z,99.90
2023-02-14T22:11:12.463Z,99.90
2023-02-14T22:13:42.058Z,99.90
2023-02-14T22:16:11.980Z,99.90
2023-02-14T22:18:40.501Z,99.90
2023-02-14T22:21:11.397Z,99.90
2023-02-14T22:23:39.690Z,99.90
2023-02-14T22:26:12.405Z,99.90
2023-02-14T22:28:42.263Z,99.90
2023-02-14T22:31:10.535Z,99.90
2023-02-14T22:33:38.850Z,99.90
2023-02-14T22:36:07.698Z,99.90
2023-02-14T22:38:36.677Z,99.90
2023-02-14T22:41:08.368Z,99.90
2023-02-14T22:43:37.173Z,99.90
2023-02-14T22:46:08.381Z,99.90
2023-02-14T22:48:37.323Z,99.90
2023-02-14T22:51:10.956Z,99.90
2023-02-14T22:53:39.861Z,99.90
2023-02-14T22:56:13.366Z,99.90
2023-02-14T22:58:41.656Z,99.90
2023-02-14T23:01:15.629Z,99.90
2023-02-14T23:03:43.893Z,99.90
2023-02-14T23:06:12.352Z,99.90
2023-02-14T23:08:40.937Z,99.90
2023-02-14T23:11:10.330Z,99.90
2023-02-14T23:13:56.753Z,99.90
2023-02-14T23:16:43.774Z,99.90
2023-02-14T23:19:31.726Z,99.90
2023-02-14T23:22:00.708Z,99.90
2023-02-14T23:24:28.875Z,99.90
2023-02-14T23:26:57.074Z,99.90
2023-02-14T23:29:25.598Z,99.90
2023-02-14T23:31:55.229Z,99.90
2023-02-14T23:34:25.884Z,99.90
2023-02-14T23:36:54.065Z,99.90
2023-02-14T23:39:22.239Z,99.90
2023-02-14T23:41:50.446Z,99.90
2023-02-14T23:44:20.256Z,99.90
2023-02-14T23:46:48.638Z,99.90
2023-02-14T23:49:18.482Z,99.90
2023-02-14T23:51:46.992Z,99.90
2023-02-14T23:54:15.587Z,99.90
2023-02-14T23:56:45.253Z,99.90
2023-02-14T23:59:13.669Z,99.90
